sensor_id;sensor_type;location;lat;lon;timestamp;temperature;humidity
65766;SHT31;52915;53.718;19.946;2023-05-07T00:04:16;6.69;59.69
65766;SHT31;52915;53.718;19.946;2023-05-07T00:09:22;6.57;59.99
65766;SHT31;52915;53.718;19.946;2023-05-07T00:14:26;6.50;60.06
65766;SHT31;52915;53.718;19.946;2023-05-07T00:19:30;6.41;60.33
65766;SHT31;52915;53.718;19.946;2023-05-07T00:24:35;6.31;60.69
65766;SHT31;52915;53.718;19.946;2023-05-07T00:29:39;6.26;60.99
65766;SHT31;52915;53.718;19.946;2023-05-07T00:34:43;6.19;61.35
65766;SHT31;52915;53.718;19.946;2023-05-07T00:39:47;6.14;61.40
65766;SHT31;52915;53.718;19.946;2023-05-07T00:44:51;6.09;61.65
65766;SHT31;52915;53.718;19.946;2023-05-07T00:49:55;6.06;61.87
65766;SHT31;52915;53.718;19.946;2023-05-07T00:55:05;6.03;62.01
65766;SHT31;52915;53.718;19.946;2023-05-07T01:00:11;5.98;62.03
65766;SHT31;52915;53.718;19.946;2023-05-07T01:05:17;5.93;62.18
65766;SHT31;52915;53.718;19.946;2023-05-07T01:10:25;5.89;62.15
65766;SHT31;52915;53.718;19.946;2023-05-07T01:15:30;5.86;62.26
65766;SHT31;52915;53.718;19.946;2023-05-07T01:20:34;5.76;62.44
65766;SHT31;52915;53.718;19.946;2023-05-07T01:25:38;5.71;62.58
65766;SHT31;52915;53.718;19.946;2023-05-07T01:30:44;5.62;63.01
65766;SHT31;52915;53.718;19.946;2023-05-07T01:35:59;5.44;63.49
65766;SHT31;52915;53.718;19.946;2023-05-07T01:41:06;5.32;63.88
65766;SHT31;52915;53.718;19.946;2023-05-07T01:46:11;5.24;64.32
65766;SHT31;52915;53.718;19.946;2023-05-07T01:51:16;5.17;64.64
65766;SHT31;52915;53.718;19.946;2023-05-07T01:56:20;5.08;65.01
65766;SHT31;52915;53.718;19.946;2023-05-07T02:01:26;4.99;65.33
65766;SHT31;52915;53.718;19.946;2023-05-07T02:06:30;4.91;65.61
65766;SHT31;52915;53.718;19.946;2023-05-07T02:11:34;4.88;65.75
65766;SHT31;52915;53.718;19.946;2023-05-07T02:16:38;4.81;65.98
65766;SHT31;52915;53.718;19.946;2023-05-07T02:21:43;4.71;66.31
65766;SHT31;52915;53.718;19.946;2023-05-07T02:26:50;4.63;66.61
65766;SHT31;52915;53.718;19.946;2023-05-07T02:31:54;4.56;66.81
65766;SHT31;52915;53.718;19.946;2023-05-07T02:36:58;4.46;67.03
65766;SHT31;52915;53.718;19.946;2023-05-07T02:42:02;4.38;67.21
65766;SHT31;52915;53.718;19.946;2023-05-07T02:47:06;4.30;67.56
65766;SHT31;52915;53.718;19.946;2023-05-07T02:52:13;4.22;67.74
65766;SHT31;52915;53.718;19.946;2023-05-07T02:57:17;4.17;67.89
65766;SHT31;52915;53.718;19.946;2023-05-07T03:02:21;4.12;68.13
65766;SHT31;52915;53.718;19.946;2023-05-07T03:07:26;4.07;68.29
65766;SHT31;52915;53.718;19.946;2023-05-07T03:12:30;4.09;68.27
65766;SHT31;52915;53.718;19.946;2023-05-07T03:17:34;4.04;68.39
65766;SHT31;52915;53.718;19.946;2023-05-07T03:22:39;4.03;68.61
65766;SHT31;52915;53.718;19.946;2023-05-07T03:27:43;4.10;68.54
65766;SHT31;52915;53.718;19.946;2023-05-07T03:32:47;4.18;68.26
65766;SHT31;52915;53.718;19.946;2023-05-07T03:37:54;4.26;68.18
65766;SHT31;52915;53.718;19.946;2023-05-07T03:43:00;4.36;67.95
65766;SHT31;52915;53.718;19.946;2023-05-07T03:48:04;4.42;67.90
65766;SHT31;52915;53.718;19.946;2023-05-07T03:53:08;4.49;67.75
65766;SHT31;52915;53.718;19.946;2023-05-07T03:58:12;4.58;67.45
65766;SHT31;52915;53.718;19.946;2023-05-07T04:03:17;4.68;67.10
65766;SHT31;52915;53.718;19.946;2023-05-07T04:08:22;4.83;66.69
65766;SHT31;52915;53.718;19.946;2023-05-07T04:13:26;4.97;66.25
65766;SHT31;52915;53.718;19.946;2023-05-07T04:18:30;5.15;65.73
65766;SHT31;52915;53.718;19.946;2023-05-07T04:23:35;5.36;65.39
65766;SHT31;52915;53.718;19.946;2023-05-07T04:28:39;5.57;64.67
65766;SHT31;52915;53.718;19.946;2023-05-07T04:33:44;5.78;63.88
65766;SHT31;52915;53.718;19.946;2023-05-07T04:38:48;5.98;63.10
65766;SHT31;52915;53.718;19.946;2023-05-07T04:43:52;6.18;62.60
65766;SHT31;52915;53.718;19.946;2023-05-07T04:48:56;6.38;62.09
65766;SHT31;52915;53.718;19.946;2023-05-07T04:54:00;6.64;61.43
65766;SHT31;52915;53.718;19.946;2023-05-07T04:59:04;6.88;60.89
65766;SHT31;52915;53.718;19.946;2023-05-07T05:04:09;7.11;60.28
65766;SHT31;52915;53.718;19.946;2023-05-07T05:09:13;7.38;59.58
65766;SHT31;52915;53.718;19.946;2023-05-07T05:14:19;7.64;58.78
65766;SHT31;52915;53.718;19.946;2023-05-07T05:19:23;7.78;57.48
65766;SHT31;52915;53.718;19.946;2023-05-07T05:24:28;7.97;56.63
65766;SHT31;52915;53.718;19.946;2023-05-07T05:29:33;8.22;55.20
65766;SHT31;52915;53.718;19.946;2023-05-07T05:34:38;8.46;54.40
65766;SHT31;52915;53.718;19.946;2023-05-07T05:39:42;8.69;53.38
65766;SHT31;52915;53.718;19.946;2023-05-07T05:44:46;8.98;53.21
65766;SHT31;52915;53.718;19.946;2023-05-07T05:49:50;9.34;52.53
65766;SHT31;52915;53.718;19.946;2023-05-07T05:54:54;9.53;51.91
65766;SHT31;52915;53.718;19.946;2023-05-07T05:59:59;9.80;50.97
65766;SHT31;52915;53.718;19.946;2023-05-07T06:05:04;10.04;50.36
65766;SHT31;52915;53.718;19.946;2023-05-07T06:10:09;10.28;49.88
65766;SHT31;52915;53.718;19.946;2023-05-07T06:15:13;10.48;48.81
65766;SHT31;52915;53.718;19.946;2023-05-07T06:20:17;10.69;48.35
65766;SHT31;52915;53.718;19.946;2023-05-07T06:25:21;10.93;47.38
65766;SHT31;52915;53.718;19.946;2023-05-07T06:30:26;11.09;46.51
65766;SHT31;52915;53.718;19.946;2023-05-07T06:35:30;11.43;47.51
65766;SHT31;52915;53.718;19.946;2023-05-07T06:40:34;11.82;46.44
65766;SHT31;52915;53.718;19.946;2023-05-07T06:45:39;12.14;46.10
65766;SHT31;52915;53.718;19.946;2023-05-07T06:50:43;12.46;45.69
65766;SHT31;52915;53.718;19.946;2023-05-07T06:55:47;12.74;45.44
65766;SHT31;52915;53.718;19.946;2023-05-07T07:00:51;13.06;45.19
65766;SHT31;52915;53.718;19.946;2023-05-07T07:05:55;13.28;44.18
65766;SHT31;52915;53.718;19.946;2023-05-07T07:11:00;13.47;44.15
65766;SHT31;52915;53.718;19.946;2023-05-07T07:16:04;13.74;43.11
65766;SHT31;52915;53.718;19.946;2023-05-07T07:21:09;13.86;42.81
65766;SHT31;52915;53.718;19.946;2023-05-07T07:26:16;14.15;41.60
65766;SHT31;52915;53.718;19.946;2023-05-07T07:31:22;14.17;40.88
65766;SHT31;52915;53.718;19.946;2023-05-07T07:36:25;14.33;40.51
65766;SHT31;52915;53.718;19.946;2023-05-07T08:35:57;16.26;33.28
65766;SHT31;52915;53.718;19.946;2023-05-07T08:41:13;16.24;31.91
65766;SHT31;52915;53.718;19.946;2023-05-07T08:46:18;16.10;31.59
65766;SHT31;52915;53.718;19.946;2023-05-07T08:57:22;16.31;32.14
65766;SHT31;52915;53.718;19.946;2023-05-07T09:02:29;16.67;31.95
65766;SHT31;52915;53.718;19.946;2023-05-07T09:13:35;17.03;31.23
65766;SHT31;52915;53.718;19.946;2023-05-07T09:47:57;18.87;30.39
65766;SHT31;52915;53.718;19.946;2023-05-07T09:58:40;18.97;28.00
65766;SHT31;52915;53.718;19.946;2023-05-07T10:09:25;18.07;28.94
65766;SHT31;52915;53.718;19.946;2023-05-07T10:14:31;18.34;28.33
65766;SHT31;52915;53.718;19.946;2023-05-07T10:36:34;18.56;27.68
65766;SHT31;52915;53.718;19.946;2023-05-07T10:47:17;19.02;26.88
65766;SHT31;52915;53.718;19.946;2023-05-07T10:52:25;19.20;29.17
65766;SHT31;52915;53.718;19.946;2023-05-07T10:57:37;19.37;27.20
65766;SHT31;52915;53.718;19.946;2023-05-07T11:08:11;19.58;26.30
65766;SHT31;52915;53.718;19.946;2023-05-07T11:24:51;19.93;27.16
65766;SHT31;52915;53.718;19.946;2023-05-07T11:47:57;19.33;25.67
65766;SHT31;52915;53.718;19.946;2023-05-07T11:58:46;19.23;26.07
65766;SHT31;52915;53.718;19.946;2023-05-07T12:15:11;20.18;25.74
65766;SHT31;52915;53.718;19.946;2023-05-07T12:37:25;20.43;25.25
65766;SHT31;52915;53.718;19.946;2023-05-07T12:48:58;20.42;22.99
65766;SHT31;52915;53.718;19.946;2023-05-07T12:54:04;20.52;24.65
65766;SHT31;52915;53.718;19.946;2023-05-07T13:04:47;20.87;24.52
65766;SHT31;52915;53.718;19.946;2023-05-07T13:15:26;21.35;24.36
65766;SHT31;52915;53.718;19.946;2023-05-07T13:31:50;21.30;24.64
65766;SHT31;52915;53.718;19.946;2023-05-07T13:36:55;21.16;24.41
65766;SHT31;52915;53.718;19.946;2023-05-07T13:42:17;21.13;23.91
65766;SHT31;52915;53.718;19.946;2023-05-07T13:53:25;20.82;24.07
65766;SHT31;52915;53.718;19.946;2023-05-07T14:11:07;21.38;24.49
65766;SHT31;52915;53.718;19.946;2023-05-07T14:16:11;21.43;24.52
65766;SHT31;52915;53.718;19.946;2023-05-07T14:21:15;20.66;22.86
65766;SHT31;52915;53.718;19.946;2023-05-07T14:26:22;20.21;24.21
65766;SHT31;52915;53.718;19.946;2023-05-07T14:43:01;20.25;23.43
65766;SHT31;52915;53.718;19.946;2023-05-07T15:00:03;20.74;23.93
65766;SHT31;52915;53.718;19.946;2023-05-07T15:05:09;21.58;23.50
65766;SHT31;52915;53.718;19.946;2023-05-07T15:38:07;24.70;21.53
65766;SHT31;52915;53.718;19.946;2023-05-07T15:43:14;24.64;20.91
65766;SHT31;52915;53.718;19.946;2023-05-07T15:48:31;24.47;20.86
65766;SHT31;52915;53.718;19.946;2023-05-07T15:53:37;23.80;20.65
65766;SHT31;52915;53.718;19.946;2023-05-07T16:11:37;23.99;21.60
65766;SHT31;52915;53.718;19.946;2023-05-07T16:31:23;22.29;22.34
65766;SHT31;52915;53.718;19.946;2023-05-07T16:48:29;21.33;23.76
65766;SHT31;52915;53.718;19.946;2023-05-07T16:53:53;20.84;23.83
65766;SHT31;52915;53.718;19.946;2023-05-07T16:58:57;20.22;24.42
65766;SHT31;52915;53.718;19.946;2023-05-07T17:20:01;18.70;26.30
65766;SHT31;52915;53.718;19.946;2023-05-07T17:31:43;17.57;27.83
65766;SHT31;52915;53.718;19.946;2023-05-07T17:36:51;17.11;28.40
65766;SHT31;52915;53.718;19.946;2023-05-07T17:56:44;15.75;30.78
65766;SHT31;52915;53.718;19.946;2023-05-07T18:11:53;15.23;32.79
65766;SHT31;52915;53.718;19.946;2023-05-07T18:17:02;15.03;33.65
65766;SHT31;52915;53.718;19.946;2023-05-07T18:22:06;14.77;34.35
65766;SHT31;52915;53.718;19.946;2023-05-07T18:27:16;14.54;34.50
65766;SHT31;52915;53.718;19.946;2023-05-07T18:32:20;14.32;35.13
65766;SHT31;52915;53.718;19.946;2023-05-07T18:37:28;14.05;36.06
65766;SHT31;52915;53.718;19.946;2023-05-07T18:42:32;13.73;36.97
65766;SHT31;52915;53.718;19.946;2023-05-07T18:47:48;13.43;38.15
65766;SHT31;52915;53.718;19.946;2023-05-07T18:52:52;13.05;39.60
65766;SHT31;52915;53.718;19.946;2023-05-07T19:25:59;11.64;42.94
65766;SHT31;52915;53.718;19.946;2023-05-07T19:36:58;11.42;42.83
65766;SHT31;52915;53.718;19.946;2023-05-07T19:42:02;11.25;43.25
65766;SHT31;52915;53.718;19.946;2023-05-07T20:07:56;10.51;45.58
65766;SHT31;52915;53.718;19.946;2023-05-07T20:20:13;10.03;48.40
65766;SHT31;52915;53.718;19.946;2023-05-07T20:25:17;9.95;50.42
65766;SHT31;52915;53.718;19.946;2023-05-07T21:09:55;8.50;55.35
65766;SHT31;52915;53.718;19.946;2023-05-07T21:21:25;8.42;55.11
65766;SHT31;52915;53.718;19.946;2023-05-07T21:26:30;8.36;55.21
65766;SHT31;52915;53.718;19.946;2023-05-07T21:31:34;8.24;56.12
65766;SHT31;52915;53.718;19.946;2023-05-07T21:36:38;8.02;57.30
65766;SHT31;52915;53.718;19.946;2023-05-07T21:41:42;7.85;57.74
65766;SHT31;52915;53.718;19.946;2023-05-07T21:52:16;7.55;60.28
65766;SHT31;52915;53.718;19.946;2023-05-07T21:57:20;7.43;60.69
65766;SHT31;52915;53.718;19.946;2023-05-07T22:02:24;7.41;60.38
65766;SHT31;52915;53.718;19.946;2023-05-07T22:13:24;7.15;60.66
65766;SHT31;52915;53.718;19.946;2023-05-07T22:18:28;7.14;60.58
65766;SHT31;52915;53.718;19.946;2023-05-07T22:23:32;7.08;60.72
65766;SHT31;52915;53.718;19.946;2023-05-07T22:28:36;7.00;61.27
65766;SHT31;52915;53.718;19.946;2023-05-07T22:33:40;6.90;61.47
65766;SHT31;52915;53.718;19.946;2023-05-07T22:38:44;6.81;61.70
65766;SHT31;52915;53.718;19.946;2023-05-07T22:43:48;6.71;61.89
65766;SHT31;52915;53.718;19.946;2023-05-07T22:48:52;6.56;62.15
65766;SHT31;52915;53.718;19.946;2023-05-07T22:53:56;6.38;62.76
65766;SHT31;52915;53.718;19.946;2023-05-07T22:58:59;6.24;63.33
65766;SHT31;52915;53.718;19.946;2023-05-07T23:04:03;6.11;64.04
65766;SHT31;52915;53.718;19.946;2023-05-07T23:09:08;5.95;64.61
65766;SHT31;52915;53.718;19.946;2023-05-07T23:14:12;5.84;64.61
65766;SHT31;52915;53.718;19.946;2023-05-07T23:19:16;5.79;64.90
65766;SHT31;52915;53.718;19.946;2023-05-07T23:24:20;5.73;65.47
65766;SHT31;52915;53.718;19.946;2023-05-07T23:29:23;5.66;65.99
65766;SHT31;52915;53.718;19.946;2023-05-07T23:34:27;5.58;66.29
65766;SHT31;52915;53.718;19.946;2023-05-07T23:39:31;5.51;66.16
65766;SHT31;52915;53.718;19.946;2023-05-07T23:44:35;5.44;65.94
65766;SHT31;52915;53.718;19.946;2023-05-07T23:49:38;5.32;66.31
65766;SHT31;52915;53.718;19.946;2023-05-07T23:54:42;5.18;66.87
65766;SHT31;52915;53.718;19.946;2023-05-07T23:59:46;5.11;67.01
